Time;durP1;ratioP1;P1;durP2;ratioP2;P2;SDS_P1;SDS_P2;PMS_P1;PMS_P2;Temp;Humidity;BMP_temperature;BMP_pressure;BME280_temperature;BME280_humidity;BME280_pressure;Samples;Min_cycle;Max_cycle;Signal;HPM_P1;HPM_P2
2021/10/17 00:02:12;;;;;;;16.02;7.68;;;;;;;5.49;73.98;100946.16;8477647;33;20498;-73
2021/10/17 00:07:15;;;;;;;12.65;7.55;;;;;;;5.46;73.92;100954.31;8495645;33;20156;-73
2021/10/17 00:12:18;;;;;;;10.65;6.63;;;;;;;5.52;73.85;100953.13;8488827;33;20432;-73
2021/10/17 00:17:23;;;;;;;14.90;7.82;;;;;;;5.52;73.96;100953.13;8488063;33;20428;-73
2021/10/17 00:22:26;;;;;;;14.70;7.18;;;;;;;5.54;74.10;100956.59;8482971;33;20250;-73
2021/10/17 00:27:29;;;;;;;11.98;6.25;;;;;;;5.68;74.00;100958.56;8481621;33;20677;-73
2021/10/17 00:32:33;;;;;;;11.05;6.60;;;;;;;5.83;73.81;100954.22;8458860;33;20173;-73
2021/10/17 00:37:38;;;;;;;12.80;7.00;;;;;;;5.91;73.31;100954.69;8483286;33;20476;-73
2021/10/17 00:42:44;;;;;;;13.10;7.68;;;;;;;5.88;73.42;100942.38;8459724;33;20176;-73
2021/10/17 00:47:48;;;;;;;14.45;7.10;;;;;;;5.78;73.65;100949.09;8481701;33;20130;-73
2021/10/17 00:52:52;;;;;;;12.98;7.32;;;;;;;5.72;73.94;100944.97;8493575;33;20994;-73
2021/10/17 00:57:59;;;;;;;13.20;7.93;;;;;;;5.71;73.89;100937.91;8477384;33;20595;-73
2021/10/17 01:03:03;;;;;;;12.13;8.45;;;;;;;5.61;74.06;100931.34;8501566;33;20156;-74
2021/10/17 01:08:06;;;;;;;10.27;6.97;;;;;;;5.50;74.69;100925.69;8501374;33;20460;-73
2021/10/17 01:13:15;;;;;;;12.82;7.20;;;;;;;5.42;75.15;100918.09;8476826;33;21865;-73
2021/10/17 01:18:21;;;;;;;12.00;7.28;;;;;;;5.38;75.62;100921.00;8462799;33;20549;-73
2021/10/17 01:23:27;;;;;;;16.83;7.57;;;;;;;5.54;76.03;100911.28;8485804;33;20458;-73
2021/10/17 01:28:31;;;;;;;10.60;6.75;;;;;;;5.71;75.31;100918.41;8462857;33;21388;-73
2021/10/17 01:33:34;;;;;;;14.05;7.35;;;;;;;5.81;74.88;100926.75;8486126;33;20620;-73
2021/10/17 01:38:38;;;;;;;9.57;6.50;;;;;;;5.86;74.81;100922.06;8462834;33;20806;-73
2021/10/17 01:43:42;;;;;;;12.68;6.55;;;;;;;5.88;75.03;100917.50;8485910;33;20315;-73
2021/10/17 01:48:47;;;;;;;12.90;7.03;;;;;;;5.91;74.91;100920.88;8491000;33;20521;-73
2021/10/17 01:53:51;;;;;;;11.45;6.90;;;;;;;5.98;74.60;100920.53;8475977;33;20232;-73
2021/10/17 01:58:54;;;;;;;10.82;6.88;;;;;;;5.90;75.23;100913.81;8477734;33;20464;-73
2021/10/17 02:04:00;;;;;;;10.63;6.53;;;;;;;5.75;74.88;100911.09;8506452;33;20196;-73
2021/10/17 02:09:07;;;;;;;14.20;6.35;;;;;;;5.67;75.01;100892.84;8473237;33;20464;-73
2021/10/17 02:14:10;;;;;;;13.30;7.40;;;;;;;5.54;75.63;100907.72;8484239;33;20180;-74
2021/10/17 02:19:14;;;;;;;13.73;7.45;;;;;;;5.72;75.79;100909.44;8485089;33;21984;-74
2021/10/17 02:24:20;;;;;;;12.75;7.20;;;;;;;5.87;74.40;100894.44;8500101;33;20417;-74
2021/10/17 02:29:23;;;;;;;13.15;7.18;;;;;;;6.07;72.87;100886.25;8477070;33;21825;-72
2021/10/17 02:34:45;;;;;;;16.20;7.15;;;;;;;6.27;72.19;100898.47;8500600;33;20152;-72
2021/10/17 02:39:49;;;;;;;11.57;6.57;;;;;;;6.35;71.33;100903.41;8471884;33;20199;-73
2021/10/17 02:44:53;;;;;;;12.48;6.35;;;;;;;6.35;71.41;100904.25;8462488;33;20244;-73
2021/10/17 02:49:59;;;;;;;15.20;7.07;;;;;;;6.34;71.50;100896.34;8468020;33;20426;-72
2021/10/17 02:55:05;;;;;;;14.00;7.03;;;;;;;6.39;71.83;100895.16;8463135;33;20191;-73
2021/10/17 03:00:10;;;;;;;12.43;6.45;;;;;;;6.16;73.03;100893.72;8461942;33;20531;-72
2021/10/17 03:05:13;;;;;;;14.20;7.20;;;;;;;5.94;74.22;100902.03;8459910;33;20488;-73
2021/10/17 03:10:22;;;;;;;11.27;6.70;;;;;;;5.86;74.51;100898.91;8460964;33;20134;-72
2021/10/17 03:15:27;;;;;;;8.27;6.10;;;;;;;5.85;75.00;100899.00;8461691;33;21939;-73
2021/10/17 03:20:30;;;;;;;12.10;7.18;;;;;;;5.75;74.86;100901.28;8462483;33;21141;-73
2021/10/17 03:25:35;;;;;;;12.95;7.35;;;;;;;5.68;75.55;100889.25;8473451;33;20160;-73
2021/10/17 03:30:39;;;;;;;11.57;7.40;;;;;;;5.67;75.67;100888.34;8500091;33;20179;-73
2021/10/17 03:35:46;;;;;;;14.23;7.22;;;;;;;5.76;75.07;100884.38;8474786;33;20416;-73
2021/10/17 03:40:52;;;;;;;15.55;7.85;;;;;;;5.80;75.35;100887.72;8464173;33;20412;-73
2021/10/17 03:45:55;;;;;;;11.47;6.47;;;;;;;5.79;74.98;100884.19;8465617;33;20442;-73
2021/10/17 03:51:08;;;;;;;14.95;6.93;;;;;;;5.78;74.46;100878.94;8488237;33;20870;-73
2021/10/17 03:56:12;;;;;;;13.20;7.15;;;;;;;5.78;73.91;100886.94;8464006;33;20185;-73
2021/10/17 04:01:16;;;;;;;12.00;6.97;;;;;;;5.85;73.69;100893.69;8486826;33;20153;-73
2021/10/17 04:06:19;;;;;;;13.90;7.72;;;;;;;5.83;73.18;100882.22;8463183;33;20513;-74
2021/10/17 04:11:29;;;;;;;15.20;7.82;;;;;;;5.80;73.34;100883.25;8463449;33;20145;-74
2021/10/17 04:16:33;;;;;;;11.40;6.88;;;;;;;5.85;72.99;100886.53;8462938;33;20181;-73
2021/10/17 04:21:37;;;;;;;14.00;7.25;;;;;;;5.80;72.75;100885.91;8463837;33;20416;-73
2021/10/17 04:26:42;;;;;;;16.35;7.88;;;;;;;5.75;73.10;100889.78;8464150;33;20419;-73
2021/10/17 04:31:47;;;;;;;15.60;8.05;;;;;;;5.81;72.76;100882.28;8485961;33;20432;-73
2021/10/17 04:36:50;;;;;;;12.70;7.93;;;;;;;5.83;72.61;100884.91;8463071;33;20689;-73
2021/10/17 04:41:55;;;;;;;15.70;7.32;;;;;;;5.73;72.78;100882.72;8483751;33;20478;-73
2021/10/17 04:46:58;;;;;;;12.85;7.43;;;;;;;5.78;72.51;100881.59;8475838;33;21505;-73
2021/10/17 04:52:01;;;;;;;17.75;8.30;;;;;;;5.81;72.40;100878.78;8477699;33;20239;-73
2021/10/17 04:57:05;;;;;;;11.93;7.82;;;;;;;5.83;71.77;100887.56;8479659;33;20175;-73
2021/10/17 05:02:09;;;;;;;16.73;8.38;;;;;;;5.88;72.18;100886.38;8483927;33;20137;-73
2021/10/17 05:07:12;;;;;;;15.23;7.97;;;;;;;5.96;71.65;100885.97;8462386;33;20298;-73
2021/10/17 05:12:16;;;;;;;16.08;7.95;;;;;;;5.90;71.68;100887.16;8483141;33;20468;-73
2021/10/17 05:17:20;;;;;;;14.95;7.78;;;;;;;5.93;72.09;100883.47;8475981;33;20141;-72
2021/10/17 05:22:23;;;;;;;15.93;9.23;;;;;;;5.88;72.17;100881.03;8480585;33;20200;-72
2021/10/17 05:27:28;;;;;;;13.52;8.50;;;;;;;5.83;72.01;100879.56;8465131;33;20833;-72
2021/10/17 05:32:32;;;;;;;14.13;7.97;;;;;;;5.90;71.63;100876.50;8504450;33;20412;-72
2021/10/17 05:37:35;;;;;;;15.38;8.50;;;;;;;5.93;71.50;100886.13;8480315;33;20431;-73
2021/10/17 05:42:40;;;;;;;15.02;7.93;;;;;;;5.99;71.19;100876.94;8476750;33;20488;-73
2021/10/17 05:47:44;;;;;;;16.58;8.93;;;;;;;6.05;70.88;100887.28;8477828;33;20153;-73
2021/10/17 05:52:47;;;;;;;14.50;8.07;;;;;;;6.06;70.53;100895.19;8480352;33;20160;-73
2021/10/17 05:57:52;;;;;;;16.83;8.90;;;;;;;6.12;70.26;100894.84;8479945;33;20546;-73
2021/10/17 06:02:55;;;;;;;15.10;9.20;;;;;;;6.15;69.49;100908.03;8479305;33;20164;-73
2021/10/17 06:08:01;;;;;;;13.50;8.73;;;;;;;6.22;69.59;100905.03;8457417;33;20504;-73
2021/10/17 06:13:07;;;;;;;17.48;9.88;;;;;;;6.23;69.43;100904.09;8496299;33;20928;-73
2021/10/17 06:18:10;;;;;;;15.57;9.38;;;;;;;6.27;69.49;100916.31;8471421;33;20445;-73
2021/10/17 06:23:15;;;;;;;16.50;10.52;;;;;;;6.32;69.12;100917.78;8461896;33;20243;-73
2021/10/17 06:28:20;;;;;;;12.93;8.30;;;;;;;6.28;68.67;100910.91;8486131;33;20442;-73
2021/10/17 06:33:23;;;;;;;19.02;9.70;;;;;;;6.23;69.05;100920.09;8462656;33;20477;-71
2021/10/17 06:38:27;;;;;;;21.25;9.57;;;;;;;6.37;68.81;100921.06;8459578;33;20202;-73
2021/10/17 06:43:33;;;;;;;13.68;9.68;;;;;;;6.35;68.51;100917.59;8461861;33;21417;-73
2021/10/17 06:48:48;;;;;;;16.00;9.35;;;;;;;6.52;67.96;100926.47;8450206;33;20573;-72
2021/10/17 06:53:52;;;;;;;13.23;8.88;;;;;;;6.61;67.62;100926.84;8420748;33;20145;-72
2021/10/17 06:58:58;;;;;;;17.05;9.77;;;;;;;6.84;67.08;100927.34;8404791;34;20441;-72
2021/10/17 07:04:01;;;;;;;18.52;9.38;;;;;;;6.89;66.91;100927.13;8405968;34;20146;-72
2021/10/17 07:09:11;;;;;;;17.40;9.13;;;;;;;6.99;66.79;100925.63;8428502;34;21055;-72
2021/10/17 07:14:43;;;;;;;21.15;10.57;;;;;;;7.12;66.45;100923.13;8427270;34;20484;-72
2021/10/17 07:20:12;;;;;;;15.20;9.25;;;;;;;7.10;66.72;100912.53;8430814;34;20156;-72
2021/10/17 07:25:16;;;;;;;15.63;10.70;;;;;;;7.04;66.99;100926.25;8432848;34;21033;-72
2021/10/17 07:30:21;;;;;;;18.80;10.82;;;;;;;7.09;67.18;100924.16;8410622;34;20474;-72
2021/10/17 07:35:24;;;;;;;17.55;10.10;;;;;;;7.16;67.59;100930.88;8417401;34;20455;-72
2021/10/17 07:40:28;;;;;;;18.55;10.13;;;;;;;7.35;67.23;100927.13;8417194;34;20150;-72
2021/10/17 07:45:35;;;;;;;19.02;9.55;;;;;;;7.57;66.74;100934.72;8443781;34;21020;-72
2021/10/17 07:50:38;;;;;;;17.17;9.52;;;;;;;7.72;65.97;100945.38;8432857;34;20287;-72
2021/10/17 07:55:46;;;;;;;20.30;8.98;;;;;;;7.87;65.56;100938.25;8429244;34;20533;-72
2021/10/17 08:00:55;;;;;;;15.07;9.65;;;;;;;8.19;64.99;100940.75;8432328;34;20291;-72
2021/10/17 08:06:11;;;;;;;17.52;8.60;;;;;;;8.48;63.69;100941.63;8432962;34;20234;-72
2021/10/17 08:11:16;;;;;;;15.25;8.90;;;;;;;8.30;63.76;100950.78;8431056;34;20418;-72
2021/10/17 08:16:21;;;;;;;12.38;8.45;;;;;;;8.30;63.99;100954.31;8408172;34;20498;-72
2021/10/17 08:21:32;;;;;;;21.25;10.07;;;;;;;8.39;64.08;100955.53;8431625;34;21245;-72
2021/10/17 08:26:44;;;;;;;17.80;8.95;;;;;;;8.53;64.11;100962.75;8407546;34;21059;-72
2021/10/17 08:32:08;;;;;;;21.75;10.98;;;;;;;8.51;63.35;100967.34;8409632;34;20244;-72
2021/10/17 08:37:18;;;;;;;21.90;9.50;;;;;;;8.37;62.79;100963.69;8409299;34;20368;-71
2021/10/17 08:42:46;;;;;;;13.85;8.45;;;;;;;8.26;63.04;100965.31;8409300;34;20549;-71
2021/10/17 08:48:03;;;;;;;19.55;9.15;;;;;;;8.17;63.15;100977.44;8432443;34;20924;-71
2021/10/17 08:53:11;;;;;;;16.67;8.27;;;;;;;7.94;64.53;100977.03;8410777;34;20204;-71
2021/10/17 08:58:28;;;;;;;16.17;8.40;;;;;;;8.05;63.34;100973.72;8431011;34;20438;-71
2021/10/17 09:03:34;;;;;;;16.63;8.35;;;;;;;8.18;63.45;100973.81;8428691;34;20455;-72
2021/10/17 09:08:40;;;;;;;14.00;8.02;;;;;;;8.43;63.00;100964.28;8427779;34;20203;-72
2021/10/17 09:14:05;;;;;;;12.43;8.45;;;;;;;8.60;63.00;100977.47;8424104;34;20188;-71
2021/10/17 09:19:14;;;;;;;13.68;8.25;;;;;;;8.67;62.14;100973.47;8426432;34;20654;-71
2021/10/17 09:24:25;;;;;;;13.88;8.15;;;;;;;8.94;61.91;100972.63;8402306;34;20149;-72
2021/10/17 09:29:30;;;;;;;12.07;8.05;;;;;;;9.16;61.71;100972.06;8431317;34;20426;-72
2021/10/17 09:34:34;;;;;;;19.08;8.63;;;;;;;9.15;60.92;100965.00;8430961;34;20240;-72
2021/10/17 09:39:40;;;;;;;17.02;7.70;;;;;;;9.28;60.41;100965.91;8431745;34;20420;-72
2021/10/17 09:45:01;;;;;;;15.70;7.18;;;;;;;9.25;59.81;100964.31;8431836;34;21010;-72
2021/10/17 09:50:17;;;;;;;17.75;7.95;;;;;;;9.42;59.80;100967.69;8431440;34;20504;-72
2021/10/17 09:55:21;;;;;;;16.05;8.68;;;;;;;9.69;58.49;100965.81;8431202;34;20440;-72
2021/10/17 10:00:24;;;;;;;13.05;8.23;;;;;;;9.77;59.10;100959.94;8430892;34;20427;-72
2021/10/17 10:05:28;;;;;;;15.20;8.00;;;;;;;10.03;58.40;100954.59;8435867;33;20140;-72
2021/10/17 10:10:32;;;;;;;13.05;7.32;;;;;;;9.85;57.43;100964.78;8431394;33;21638;-72
2021/10/17 10:15:36;;;;;;;13.95;7.05;;;;;;;9.79;58.12;100963.38;8444060;33;20545;-73
2021/10/17 10:20:43;;;;;;;15.75;7.80;;;;;;;10.06;57.68;100955.25;8438807;33;20409;-73
2021/10/17 10:25:49;;;;;;;13.35;7.90;;;;;;;10.73;56.76;100952.28;8466552;33;20491;-73
2021/10/17 10:30:53;;;;;;;15.30;7.75;;;;;;;10.98;55.73;100951.34;8478174;33;20543;-73
2021/10/17 10:36:19;;;;;;;14.82;7.30;;;;;;;11.39;53.84;100958.19;8476910;33;20176;-72
2021/10/17 10:41:26;;;;;;;13.60;6.78;;;;;;;11.83;52.20;100958.44;8473581;33;20407;-73
2021/10/17 10:46:30;;;;;;;15.82;6.57;;;;;;;11.44;53.34;100955.16;8482240;33;21084;-73
2021/10/17 10:51:39;;;;;;;14.07;7.00;;;;;;;11.60;53.05;100952.13;8485447;33;20571;-73
2021/10/17 10:56:46;;;;;;;13.30;6.32;;;;;;;11.65;52.99;100947.25;8481656;33;20437;-73
2021/10/17 11:02:02;;;;;;;13.35;5.22;;;;;;;11.81;52.49;100952.31;8480703;33;20389;-73
2021/10/17 11:07:19;;;;;;;11.85;5.90;;;;;;;12.23;52.55;100953.50;8484020;33;20172;-73
2021/10/17 11:12:45;;;;;;;9.82;5.60;;;;;;;12.08;51.29;100952.84;8483592;33;20184;-73
2021/10/17 11:17:50;;;;;;;9.63;5.43;;;;;;;11.86;51.87;100959.06;8485896;33;20492;-73
2021/10/17 11:22:55;;;;;;;13.18;6.10;;;;;;;11.86;51.84;100963.59;8484349;33;20860;-73
2021/10/17 11:28:00;;;;;;;9.70;5.47;;;;;;;12.11;50.23;100958.00;8468992;33;20515;-73
2021/10/17 11:33:17;;;;;;;11.25;6.90;;;;;;;11.91;51.47;100953.34;8483519;33;20148;-73
2021/10/17 11:38:22;;;;;;;10.55;6.55;;;;;;;12.49;51.35;100953.28;8482371;33;20489;-73
2021/10/17 11:43:36;;;;;;;15.10;6.95;;;;;;;12.72;50.27;100946.03;8479401;33;20156;-73
2021/10/17 11:48:39;;;;;;;9.57;6.38;;;;;;;12.67;50.14;100949.13;8465670;33;20719;-73
2021/10/17 11:53:54;;;;;;;13.25;6.75;;;;;;;12.75;50.17;100943.06;8488176;33;21325;-73
2021/10/17 11:58:57;;;;;;;8.70;6.68;;;;;;;12.24;52.61;100935.50;8480873;33;20430;-73
2021/10/17 12:04:00;;;;;;;14.20;8.32;;;;;;;12.01;53.38;100940.84;8463681;33;20434;-73
2021/10/17 12:09:06;;;;;;;11.90;7.70;;;;;;;11.95;52.40;100941.31;8448759;33;20145;-73
2021/10/17 12:14:09;;;;;;;23.33;13.60;;;;;;;12.42;53.12;100941.28;8439468;33;20552;-73
2021/10/17 12:19:26;;;;;;;10.80;8.32;;;;;;;12.23;52.87;100944.53;8457741;33;20189;-73
2021/10/17 12:24:30;;;;;;;17.75;9.48;;;;;;;11.85;54.32;100940.34;8466750;33;20155;-72
2021/10/17 12:29:39;;;;;;;12.35;8.60;;;;;;;11.76;53.40;100938.34;8466417;33;20457;-72
2021/10/17 12:34:45;;;;;;;15.68;10.13;;;;;;;11.95;53.34;100922.47;8489000;33;20520;-72
2021/10/17 12:39:49;;;;;;;15.23;8.50;;;;;;;12.15;53.54;100915.53;8490085;33;20179;-73
2021/10/17 12:44:56;;;;;;;24.10;15.38;;;;;;;11.92;53.19;100918.19;8459086;33;21066;-73
2021/10/17 12:50:14;;;;;;;13.23;8.13;;;;;;;11.94;52.94;100915.41;8483186;33;20418;-73
2021/10/17 12:55:18;;;;;;;21.23;13.80;;;;;;;12.27;52.45;100911.00;8481280;33;20366;-73
2021/10/17 13:00:21;;;;;;;10.50;8.90;;;;;;;12.64;50.38;100894.59;8481878;33;20459;-73
2021/10/17 13:05:26;;;;;;;11.65;7.45;;;;;;;12.79;50.80;100901.44;8487046;33;20430;-73
2021/10/17 13:10:31;;;;;;;14.90;8.25;;;;;;;13.25;49.89;100900.28;8486302;33;20188;-73
2021/10/17 13:15:34;;;;;;;19.92;15.20;;;;;;;13.14;49.59;100908.44;8486527;33;21019;-73
2021/10/17 13:20:40;;;;;;;12.40;8.45;;;;;;;12.58;51.85;100899.50;8486807;33;20431;-73
2021/10/17 13:25:48;;;;;;;11.23;8.75;;;;;;;12.35;52.63;100897.81;8482111;33;20454;-73
2021/10/17 13:30:51;;;;;;;27.98;16.08;;;;;;;12.22;53.72;100899.75;8482837;33;20648;-73
2021/10/17 13:35:54;;;;;;;15.57;11.38;;;;;;;12.12;52.24;100899.59;8487286;33;20565;-73
2021/10/17 13:40:59;;;;;;;12.27;9.82;;;;;;;12.04;53.78;100899.34;8459993;33;20501;-73
2021/10/17 13:46:03;;;;;;;12.15;8.27;;;;;;;11.84;54.44;100893.72;8447535;33;20979;-73
2021/10/17 13:51:06;;;;;;;11.82;7.35;;;;;;;11.80;54.16;100896.78;8466994;33;20179;-73
2021/10/17 13:56:11;;;;;;;15.27;8.07;;;;;;;11.86;53.53;100891.75;8486755;33;20242;-73
2021/10/17 14:01:14;;;;;;;9.07;7.47;;;;;;;11.94;54.00;100892.00;8486435;33;20153;-73
2021/10/17 14:06:17;;;;;;;28.52;17.40;;;;;;;11.93;54.48;100893.00;8485326;33;20277;-73
2021/10/17 14:11:21;;;;;;;10.65;7.95;;;;;;;11.78;54.98;100891.50;8482073;33;20217;-73
2021/10/17 14:16:24;;;;;;;20.42;13.95;;;;;;;11.79;54.00;100890.50;8486335;33;20471;-73
2021/10/17 14:21:28;;;;;;;15.10;10.30;;;;;;;11.59;54.63;100894.75;8487840;33;20479;-73
2021/10/17 14:26:32;;;;;;;14.75;6.97;;;;;;;11.52;55.24;100901.63;8483484;33;20543;-73
2021/10/17 14:31:36;;;;;;;36.28;20.60;;;;;;;11.51;54.94;100921.41;8461003;33;20180;-73
2021/10/17 14:36:39;;;;;;;21.13;12.77;;;;;;;11.57;55.17;100912.00;8485414;33;20181;-73
2021/10/17 14:41:45;;;;;;;15.18;6.70;;;;;;;11.52;55.09;100914.19;8484901;33;20587;-73
2021/10/17 14:46:48;;;;;;;13.85;7.97;;;;;;;11.43;55.47;100911.22;8457312;33;20626;-72
2021/10/17 14:51:51;;;;;;;12.75;6.88;;;;;;;11.35;55.24;100908.25;8475565;33;20218;-72
2021/10/17 14:56:55;;;;;;;10.40;7.63;;;;;;;11.32;55.53;100911.19;8476415;33;20302;-72
2021/10/17 15:02:01;;;;;;;12.95;7.20;;;;;;;11.28;55.98;100905.19;8478435;33;20423;-72
2021/10/17 15:07:04;;;;;;;12.48;7.80;;;;;;;11.21;56.17;100912.00;8469940;33;20491;-71
2021/10/17 15:12:09;;;;;;;12.32;7.45;;;;;;;11.20;56.23;100910.28;8478492;33;20501;-71
2021/10/17 15:17:13;;;;;;;11.35;6.53;;;;;;;11.11;56.56;100908.28;8473016;33;20443;-71
2021/10/17 15:22:17;;;;;;;10.05;6.53;;;;;;;11.11;57.42;100915.47;8473956;33;20417;-72
2021/10/17 15:27:22;;;;;;;12.77;7.10;;;;;;;11.00;57.32;100913.59;8476947;33;20496;-71
2021/10/17 15:32:28;;;;;;;13.27;6.93;;;;;;;10.93;57.58;100915.88;8483515;33;20437;-72
2021/10/17 15:37:34;;;;;;;10.95;7.07;;;;;;;10.89;58.14;100913.50;8487795;33;20148;-72
2021/10/17 15:42:39;;;;;;;12.70;7.70;;;;;;;10.86;58.65;100920.00;8490124;33;20147;-72
2021/10/17 15:47:42;;;;;;;12.63;7.80;;;;;;;10.84;58.23;100909.34;8464854;33;20412;-72
2021/10/17 15:52:46;;;;;;;16.35;8.13;;;;;;;10.81;59.24;100912.25;8490991;33;20887;-71
2021/10/17 15:57:50;;;;;;;11.82;8.05;;;;;;;10.74;60.22;100902.94;8499572;33;20137;-72
2021/10/17 16:02:53;;;;;;;12.88;8.02;;;;;;;10.63;60.67;100913.59;8490210;33;20237;-71
2021/10/17 16:07:56;;;;;;;13.00;7.68;;;;;;;10.57;60.64;100911.38;8491343;33;21300;-71
2021/10/17 16:13:03;;;;;;;14.15;7.78;;;;;;;10.52;60.59;100903.63;8488072;33;20503;-71
2021/10/17 16:18:06;;;;;;;9.77;7.15;;;;;;;10.49;60.96;100908.38;8484587;33;20220;-72
2021/10/17 16:23:09;;;;;;;12.13;6.97;;;;;;;10.43;61.31;100915.06;8484418;33;20457;-72
2021/10/17 16:28:16;;;;;;;11.95;6.80;;;;;;;10.41;61.30;100918.81;8483776;33;20422;-72
2021/10/17 16:33:21;;;;;;;11.70;6.82;;;;;;;10.36;61.13;100928.06;8480601;33;20184;-72
2021/10/17 16:38:24;;;;;;;11.07;7.32;;;;;;;10.35;61.04;100931.72;8482885;33;20466;-71
2021/10/17 16:43:30;;;;;;;10.27;7.28;;;;;;;10.32;61.25;100933.78;8481863;33;20443;-73
2021/10/17 16:48:33;;;;;;;9.90;7.20;;;;;;;10.27;61.71;100943.97;8481063;33;20907;-72
2021/10/17 16:53:37;;;;;;;13.18;7.75;;;;;;;10.20;62.69;100962.31;8482125;33;20967;-73
2021/10/17 16:58:42;;;;;;;13.30;7.47;;;;;;;9.98;64.99;100967.47;8483564;33;20144;-74
2021/10/17 17:03:45;;;;;;;10.85;6.47;;;;;;;9.76;66.61;100974.28;8482686;33;20669;-73
2021/10/17 17:08:48;;;;;;;13.23;7.35;;;;;;;9.64;67.21;100970.63;8481391;33;20722;-73
2021/10/17 17:13:53;;;;;;;19.25;10.18;;;;;;;9.69;66.77;100971.19;8476780;33;20489;-73
2021/10/17 17:18:56;;;;;;;18.17;11.15;;;;;;;9.75;67.01;100975.25;8479451;33;20267;-73
2021/10/17 17:23:59;;;;;;;15.10;9.50;;;;;;;9.77;66.39;100972.50;8457704;33;20187;-73
2021/10/17 17:29:04;;;;;;;11.82;8.27;;;;;;;9.73;65.82;100974.50;8493445;33;20138;-73
2021/10/17 17:34:07;;;;;;;15.07;8.75;;;;;;;9.67;65.17;100988.34;8500816;33;20137;-74
2021/10/17 17:39:14;;;;;;;16.70;9.38;;;;;;;9.73;64.05;100980.72;8499395;33;20173;-73
2021/10/17 17:44:18;;;;;;;14.38;9.30;;;;;;;9.73;64.50;100980.72;8490695;33;21499;-73
2021/10/17 17:49:22;;;;;;;14.90;8.82;;;;;;;9.71;64.72;100980.00;8487159;33;20420;-73
2021/10/17 17:54:25;;;;;;;13.82;8.65;;;;;;;9.72;63.76;100989.75;8483186;33;20396;-73
2021/10/17 17:59:29;;;;;;;10.75;7.50;;;;;;;9.79;62.31;100987.53;8480802;33;20235;-74
2021/10/17 18:04:32;;;;;;;14.80;8.98;;;;;;;9.87;61.65;100993.25;8480450;33;20476;-73
2021/10/17 18:09:35;;;;;;;16.65;9.75;;;;;;;9.91;61.72;100988.53;8457278;33;20439;-73
2021/10/17 18:14:40;;;;;;;13.75;8.52;;;;;;;9.93;61.47;100982.09;8479269;33;20511;-73
2021/10/17 18:19:43;;;;;;;11.63;8.25;;;;;;;9.90;61.43;100989.47;8475011;33;20516;-73
2021/10/17 18:24:47;;;;;;;11.57;8.45;;;;;;;9.86;61.51;100986.16;8456137;33;20469;-73
2021/10/17 18:29:52;;;;;;;15.45;10.38;;;;;;;9.89;61.82;100994.00;8481639;33;20171;-73
2021/10/17 18:34:55;;;;;;;12.38;8.77;;;;;;;9.88;61.59;100988.75;8482625;33;20871;-73
2021/10/17 18:39:58;;;;;;;13.55;10.25;;;;;;;9.86;62.04;100982.63;8486807;33;20156;-73
2021/10/17 18:45:03;;;;;;;18.75;10.77;;;;;;;9.83;62.27;100986.34;8485048;33;20220;-74
2021/10/17 18:50:08;;;;;;;15.85;9.98;;;;;;;9.77;62.87;100984.06;8485265;33;20539;-73
2021/10/17 18:55:12;;;;;;;14.50;8.88;;;;;;;9.76;62.74;100998.44;8484753;33;20415;-74
2021/10/17 19:00:18;;;;;;;14.13;8.43;;;;;;;9.76;62.43;100993.06;8478729;33;21056;-74
2021/10/17 19:05:23;;;;;;;15.20;8.82;;;;;;;9.81;62.13;100984.72;8475267;33;20446;-73
2021/10/17 19:10:26;;;;;;;21.77;9.93;;;;;;;9.82;61.90;100994.47;8474512;33;21136;-73
2021/10/17 19:15:33;;;;;;;14.53;9.80;;;;;;;9.84;61.78;101003.28;8477450;33;20458;-73
2021/10/17 19:20:37;;;;;;;14.93;10.73;;;;;;;9.82;62.14;101003.41;8480106;33;20137;-72
2021/10/17 19:25:40;;;;;;;13.60;9.30;;;;;;;9.73;62.39;101007.56;8478045;33;20194;-73
2021/10/17 19:30:44;;;;;;;17.85;9.65;;;;;;;9.67;62.82;101012.47;8480077;33;21854;-73
2021/10/17 19:35:48;;;;;;;12.23;8.40;;;;;;;9.59;63.10;101010.31;8457269;33;20406;-73
2021/10/17 19:40:51;;;;;;;17.05;9.90;;;;;;;9.57;63.53;101006.00;8478825;33;20544;-73
2021/10/17 19:45:57;;;;;;;15.15;9.80;;;;;;;9.55;63.83;101018.69;8478469;33;20637;-73
2021/10/17 19:51:01;;;;;;;13.80;9.90;;;;;;;9.52;63.86;101011.72;8467576;33;20451;-73
2021/10/17 19:56:05;;;;;;;15.98;9.35;;;;;;;9.49;64.22;101015.44;8481699;33;20253;-73
2021/10/17 20:01:09;;;;;;;14.40;9.88;;;;;;;9.46;64.18;101012.97;8484104;33;20196;-73
2021/10/17 20:06:13;;;;;;;18.30;10.20;;;;;;;9.46;64.52;101017.44;8486146;33;20473;-73
2021/10/17 20:11:16;;;;;;;16.23;12.10;;;;;;;9.43;64.71;101018.50;8484093;33;20184;-73
2021/10/17 20:16:21;;;;;;;17.63;10.55;;;;;;;9.42;65.16;101026.69;8485493;33;20506;-73
2021/10/17 20:21:24;;;;;;;14.80;10.80;;;;;;;9.32;65.70;101018.38;8497096;33;20271;-73
2021/10/17 20:26:28;;;;;;;15.93;9.90;;;;;;;9.22;66.22;101034.22;8485189;33;20267;-73
2021/10/17 20:31:32;;;;;;;17.73;9.65;;;;;;;9.22;66.77;101046.75;8483480;33;20202;-73
2021/10/17 20:36:37;;;;;;;14.05;9.93;;;;;;;9.22;67.02;101058.34;8481706;33;20444;-73
2021/10/17 20:41:40;;;;;;;17.35;9.75;;;;;;;9.15;67.78;101061.50;8481462;33;20436;-74
2021/10/17 20:46:45;;;;;;;13.43;9.02;;;;;;;9.08;68.93;101066.41;8483055;33;20410;-74
2021/10/17 20:51:51;;;;;;;12.77;9.05;;;;;;;9.01;69.03;101078.47;8489164;33;20705;-73
2021/10/17 20:56:54;;;;;;;15.75;9.30;;;;;;;8.95;69.81;101076.19;8500285;33;20156;-74
2021/10/17 21:02:01;;;;;;;19.45;12.93;;;;;;;8.93;70.05;101070.91;8491791;33;20502;-73
2021/10/17 21:07:10;;;;;;;18.27;13.63;;;;;;;8.87;69.51;101068.63;8488831;33;20232;-74
2021/10/17 21:12:13;;;;;;;21.35;14.80;;;;;;;8.80;69.64;101070.84;8470755;33;20482;-74
2021/10/17 21:17:18;;;;;;;19.30;14.15;;;;;;;8.76;69.63;101071.13;8505639;33;20454;-73
2021/10/17 21:22:21;;;;;;;22.50;13.20;;;;;;;8.75;69.80;101067.59;8460477;33;20157;-74
2021/10/17 21:27:24;;;;;;;18.48;13.20;;;;;;;8.74;70.13;101059.63;8470548;33;20451;-74
2021/10/17 21:32:29;;;;;;;35.08;21.80;;;;;;;8.71;70.06;101057.16;8469690;33;20429;-74
2021/10/17 21:37:32;;;;;;;23.27;14.32;;;;;;;8.64;70.05;101062.03;8433489;33;20497;-74
2021/10/17 21:42:35;;;;;;;16.58;12.32;;;;;;;8.67;70.31;101066.34;8454491;33;20490;-74
2021/10/17 21:47:40;;;;;;;24.52;14.55;;;;;;;8.60;70.47;101063.16;8460333;33;20510;-74
2021/10/17 21:52:43;;;;;;;21.55;12.60;;;;;;;8.52;71.08;101069.00;8443892;33;20150;-74
2021/10/17 21:57:46;;;;;;;22.67;12.63;;;;;;;8.47;71.26;101060.38;8472909;33;21053;-73
2021/10/17 22:02:51;;;;;;;17.95;11.55;;;;;;;8.39;71.49;101057.28;8494221;33;20574;-74
2021/10/17 22:07:54;;;;;;;21.60;12.00;;;;;;;8.32;71.62;101070.19;8507121;33;20188;-73
2021/10/17 22:12:58;;;;;;;20.92;11.77;;;;;;;8.30;71.86;101073.91;8508119;33;20153;-74
2021/10/17 22:18:02;;;;;;;19.30;11.95;;;;;;;8.29;71.88;101066.84;8507894;33;21967;-74
2021/10/17 22:23:05;;;;;;;18.85;10.82;;;;;;;8.25;71.89;101066.16;8507396;33;21004;-74
2021/10/17 22:28:08;;;;;;;22.88;13.10;;;;;;;8.13;72.31;101067.75;8507191;33;20417;-73
2021/10/17 22:33:13;;;;;;;20.83;11.43;;;;;;;8.11;72.43;101072.34;8480951;33;20431;-73
2021/10/17 22:38:16;;;;;;;16.05;11.20;;;;;;;8.06;72.49;101077.09;8504726;33;20188;-74
2021/10/17 22:43:19;;;;;;;16.77;11.15;;;;;;;8.02;72.74;101070.22;8506365;33;20156;-73
2021/10/17 22:48:24;;;;;;;19.17;11.77;;;;;;;8.01;72.94;101079.22;8505013;33;20882;-73
2021/10/17 22:53:27;;;;;;;18.70;12.45;;;;;;;8.06;72.65;101086.94;8506970;33;20192;-74
2021/10/17 22:58:30;;;;;;;28.40;15.82;;;;;;;8.09;72.73;101092.09;8506705;33;20192;-74
2021/10/17 23:03:34;;;;;;;24.25;13.43;;;;;;;8.08;72.54;101101.97;8507496;33;20250;-74
2021/10/17 23:08:37;;;;;;;20.30;12.05;;;;;;;7.99;72.99;101102.50;8477785;33;20419;-73
2021/10/17 23:13:40;;;;;;;19.90;11.77;;;;;;;7.91;73.53;101102.09;8492400;33;20396;-73
2021/10/17 23:18:45;;;;;;;16.55;11.90;;;;;;;7.84;73.63;101098.03;8491701;33;20883;-73
2021/10/17 23:23:49;;;;;;;20.50;12.88;;;;;;;7.80;74.02;101117.91;8491678;33;20444;-73
2021/10/17 23:28:52;;;;;;;17.40;11.68;;;;;;;7.81;74.23;101124.97;8490588;33;20469;-74
2021/10/17 23:33:56;;;;;;;18.75;11.90;;;;;;;7.87;74.34;101129.97;8487671;33;20541;-74